createdAt,value
2018-06-20T00:01:27.361Z,9.57
2018-06-20T00:03:55.905Z,9.87
2018-06-20T00:06:24.492Z,9.07
2018-06-20T00:08:53.507Z,10.93
2018-06-20T00:11:24.012Z,9.07
2018-06-20T00:13:53.345Z,8.93
2018-06-20T00:16:21.895Z,8.37
2018-06-20T00:18:50.680Z,9.57
2018-06-20T00:21:19.164Z,10.87
2018-06-20T00:23:47.640Z,10.33
2018-06-20T00:26:16.330Z,13.90
2018-06-20T00:28:44.909Z,10.97
2018-06-20T00:31:13.312Z,10.07
2018-06-20T00:33:41.872Z,10.97
2018-06-20T00:36:10.356Z,9.87
2018-06-20T00:38:38.827Z,13.27
2018-06-20T00:41:07.383Z,9.97
2018-06-20T00:43:36.006Z,9.73
2018-06-20T00:46:04.590Z,12.37
2018-06-20T00:48:33.007Z,8.10
2018-06-20T00:51:01.646Z,7.37
2018-06-20T00:53:30.228Z,8.33
2018-06-20T00:56:04.646Z,10.53
2018-06-20T00:58:33.236Z,8.83
2018-06-20T01:01:01.813Z,8.13
2018-06-20T01:03:30.292Z,6.97
2018-06-20T01:05:58.876Z,8.13
2018-06-20T01:08:27.358Z,8.00
2018-06-20T01:10:55.940Z,8.23
2018-06-20T01:13:24.621Z,7.23
2018-06-20T01:15:53.154Z,9.60
2018-06-20T01:18:21.691Z,8.37
2018-06-20T01:20:50.166Z,10.03
2018-06-20T01:23:18.453Z,9.03
2018-06-20T01:25:49.078Z,10.00
2018-06-20T01:28:18.145Z,10.37
2018-06-20T01:30:46.567Z,10.07
2018-06-20T01:33:15.037Z,8.00
2018-06-20T01:35:43.618Z,8.07
2018-06-20T01:38:12.093Z,10.87
2018-06-20T01:40:40.884Z,9.30
2018-06-20T01:43:09.464Z,8.77
2018-06-20T01:45:38.357Z,11.07
2018-06-20T01:48:07.141Z,11.77
2018-06-20T01:50:35.725Z,12.47
2018-06-20T01:53:04.308Z,10.23
2018-06-20T01:55:32.917Z,12.30
2018-06-20T01:58:01.708Z,8.30
2018-06-20T02:00:30.294Z,10.10
2018-06-20T02:02:58.524Z,11.13
2018-06-20T02:05:27.018Z,8.60
2018-06-20T02:07:55.601Z,9.43
2018-06-20T02:10:24.084Z,13.10
2018-06-20T02:12:52.666Z,9.40
2018-06-20T02:15:21.049Z,10.23
2018-06-20T02:17:49.731Z,9.37
2018-06-20T02:20:18.211Z,10.07
2018-06-20T02:22:46.591Z,9.83
2018-06-20T02:25:14.963Z,11.03
2018-06-20T02:27:43.548Z,14.87
2018-06-20T02:30:11.959Z,9.70
2018-06-20T02:32:40.818Z,10.40
2018-06-20T02:35:09.302Z,9.67
2018-06-20T02:37:37.784Z,11.60
2018-06-20T02:40:06.358Z,14.50
2018-06-20T02:42:34.943Z,9.63
2018-06-20T02:45:03.435Z,14.27
2018-06-20T02:47:37.086Z,9.17
2018-06-20T02:50:05.504Z,9.83
2018-06-20T02:52:34.101Z,8.70
2018-06-20T02:55:02.454Z,11.97
2018-06-20T02:57:31.047Z,10.63
2018-06-20T02:59:59.632Z,11.80
2018-06-20T03:02:28.217Z,10.70
2018-06-20T03:04:56.803Z,10.43
2018-06-20T03:07:25.273Z,8.83
2018-06-20T03:09:53.860Z,9.60
2018-06-20T03:12:22.341Z,10.57
2018-06-20T03:14:50.821Z,8.77
2018-06-20T03:17:19.305Z,10.03
2018-06-20T03:19:47.908Z,8.93
2018-06-20T03:22:16.367Z,10.87
2018-06-20T03:24:44.949Z,10.70
2018-06-20T03:27:13.356Z,8.00
2018-06-20T03:29:41.807Z,10.00
2018-06-20T03:32:10.294Z,8.90
2018-06-20T03:34:38.873Z,8.50
2018-06-20T03:37:07.454Z,8.10
2018-06-20T03:39:35.937Z,7.87
2018-06-20T03:42:04.413Z,8.03
2018-06-20T03:44:32.792Z,13.93
2018-06-20T03:47:01.278Z,10.27
2018-06-20T03:49:29.961Z,9.40
2018-06-20T03:51:58.468Z,11.03
2018-06-20T03:54:27.023Z,13.67
2018-06-20T03:56:55.447Z,12.63
2018-06-20T04:00:00.248Z,11.70
2018-06-20T04:02:33.734Z,11.17
2018-06-20T04:05:02.212Z,13.50
2018-06-20T04:07:30.691Z,11.93
2018-06-20T04:09:59.174Z,11.57
2018-06-20T04:12:27.658Z,13.17
2018-06-20T04:14:56.051Z,11.37
2018-06-20T04:17:24.717Z,10.90
2018-06-20T04:19:53.307Z,11.03
2018-06-20T04:22:21.702Z,9.83
2018-06-20T04:24:50.294Z,10.73
2018-06-20T04:27:18.743Z,11.07
2018-06-20T04:29:47.229Z,11.37
2018-06-20T04:32:15.637Z,10.33
2018-06-20T04:34:44.162Z,12.43
2018-06-20T04:37:12.561Z,10.00
2018-06-20T04:39:41.043Z,11.83
2018-06-20T04:42:09.837Z,10.77
2018-06-20T04:44:38.368Z,8.70
2018-06-20T04:47:06.995Z,10.07
2018-06-20T04:49:35.484Z,16.03
2018-06-20T04:52:03.908Z,9.30
2018-06-20T04:54:32.345Z,11.50
2018-06-20T04:57:01.022Z,10.63
2018-06-20T04:59:29.503Z,11.63
2018-06-20T05:01:58.067Z,8.60
2018-06-20T05:04:26.773Z,14.27
2018-06-20T05:06:55.253Z,8.23
2018-06-20T05:09:23.734Z,10.10
2018-06-20T05:11:52.108Z,12.77
2018-06-20T05:14:20.589Z,12.40
2018-06-20T05:16:49.274Z,13.93
2018-06-20T05:19:17.780Z,12.20
2018-06-20T05:21:46.141Z,11.47
2018-06-20T05:24:14.717Z,11.87
2018-06-20T05:26:43.300Z,10.83
2018-06-20T05:29:11.983Z,9.60
2018-06-20T05:31:40.518Z,12.47
2018-06-20T05:34:08.949Z,11.30
2018-06-20T05:36:37.630Z,15.17
2018-06-20T05:39:09.218Z,12.20
2018-06-20T05:41:37.799Z,9.77
2018-06-20T05:44:06.765Z,9.57
2018-06-20T05:46:35.447Z,13.53
2018-06-20T05:49:03.925Z,10.90
2018-06-20T05:51:32.510Z,9.37
2018-06-20T05:54:01.003Z,9.70
2018-06-20T05:56:29.468Z,7.23
2018-06-20T05:58:57.846Z,9.57
2018-06-20T06:01:26.431Z,10.07
2018-06-20T06:03:54.641Z,9.90
2018-06-20T06:08:58.120Z,8.23
2018-06-20T06:11:27.045Z,9.10
2018-06-20T06:13:55.452Z,10.50
2018-06-20T06:16:24.098Z,10.50
2018-06-20T06:18:52.463Z,9.63
2018-06-20T06:21:21.138Z,9.97
2018-06-20T06:23:49.821Z,9.53
2018-06-20T06:26:18.295Z,10.73
2018-06-20T06:28:46.886Z,9.87
2018-06-20T06:31:15.904Z,8.30
2018-06-20T06:33:44.463Z,9.17
2018-06-20T06:36:13.051Z,7.07
2018-06-20T06:38:41.732Z,7.87
2018-06-20T06:41:10.311Z,9.80
2018-06-20T06:43:38.895Z,9.23
2018-06-20T06:46:07.277Z,10.93
2018-06-20T06:48:35.857Z,12.10
2018-06-20T06:51:04.438Z,9.03
2018-06-20T06:53:32.922Z,9.20
2018-06-20T06:56:01.530Z,10.03
2018-06-20T06:58:30.101Z,9.63
2018-06-20T07:00:58.568Z,10.93
2018-06-20T07:03:27.253Z,8.77
2018-06-20T07:05:55.737Z,9.73
2018-06-20T07:08:24.315Z,8.07
2018-06-20T07:10:53.101Z,10.63
2018-06-20T07:13:21.786Z,10.53
2018-06-20T07:15:50.373Z,10.40
2018-06-20T07:18:18.951Z,9.97
2018-06-20T07:20:47.536Z,12.87
2018-06-20T07:23:15.923Z,11.23
2018-06-20T07:25:44.293Z,10.43
2018-06-20T07:28:12.880Z,11.20
2018-06-20T07:30:41.227Z,8.80
2018-06-20T07:33:09.631Z,11.40
2018-06-20T07:35:38.241Z,10.40
2018-06-20T07:38:06.694Z,11.00
2018-06-20T07:40:35.186Z,7.53
2018-06-20T07:43:03.649Z,9.67
2018-06-20T07:45:32.545Z,9.87
2018-06-20T07:48:01.020Z,12.70
2018-06-20T07:50:29.611Z,9.43
2018-06-20T07:52:58.204Z,12.47
2018-06-20T07:55:26.672Z,8.27
2018-06-20T07:57:55.051Z,10.50
2018-06-20T08:00:28.804Z,11.67
2018-06-20T08:03:08.097Z,8.17
2018-06-20T08:05:42.204Z,8.53
2018-06-20T08:08:16.210Z,9.23
2018-06-20T08:10:50.436Z,12.73
2018-06-20T08:13:24.241Z,10.23
2018-06-20T08:15:58.241Z,9.47
2018-06-20T08:18:32.048Z,9.87
2018-06-20T08:21:00.425Z,8.50
2018-06-20T08:23:29.038Z,10.53
2018-06-20T08:25:57.453Z,8.23
2018-06-20T08:28:26.181Z,10.40
2018-06-20T08:30:54.481Z,10.53
2018-06-20T08:33:22.829Z,10.27
2018-06-20T08:35:51.325Z,10.90
2018-06-20T08:38:19.893Z,9.70
2018-06-20T08:40:48.680Z,9.43
2018-06-20T08:43:17.053Z,9.77
2018-06-20T08:45:45.642Z,12.33
2018-06-20T08:48:14.123Z,7.97
2018-06-20T08:50:42.705Z,9.00
2018-06-20T08:53:11.379Z,10.73
2018-06-20T08:55:39.664Z,10.20
2018-06-20T08:58:08.145Z,8.87
2018-06-20T09:00:42.258Z,8.57
2018-06-20T09:03:10.842Z,8.70
2018-06-20T09:05:44.646Z,7.50
2018-06-20T09:08:18.506Z,10.57
2018-06-20T09:10:52.270Z,57.73
2018-06-20T09:13:25.964Z,24.20
2018-06-20T09:15:59.767Z,15.67
2018-06-20T09:18:33.571Z,11.27
2018-06-20T09:21:02.310Z,10.47
2018-06-20T09:23:30.943Z,10.90
2018-06-20T09:25:59.523Z,9.77
2018-06-20T09:28:28.057Z,9.83
2018-06-20T09:30:56.379Z,8.70
2018-06-20T09:33:24.781Z,13.60
2018-06-20T09:35:53.344Z,12.97
2018-06-20T09:38:21.829Z,12.50
2018-06-20T09:40:50.302Z,8.57
2018-06-20T09:43:18.890Z,8.97
2018-06-20T09:45:47.472Z,8.47
2018-06-20T09:48:15.851Z,10.80
2018-06-20T09:50:49.765Z,11.27
2018-06-20T09:53:18.153Z,11.67
2018-06-20T09:55:46.721Z,12.03
2018-06-20T09:58:15.317Z,11.77
2018-06-20T10:00:49.330Z,14.50
2018-06-20T10:03:23.427Z,9.97
2018-06-20T10:05:57.434Z,10.27
2018-06-20T10:08:31.075Z,13.13
2018-06-20T10:11:04.839Z,13.03
2018-06-20T10:13:50.114Z,9.70
2018-06-20T10:16:18.701Z,13.13
2018-06-20T10:18:47.074Z,13.60
2018-06-20T10:21:15.660Z,11.80
2018-06-20T10:23:44.142Z,13.63
2018-06-20T10:26:12.623Z,12.40
2018-06-20T10:28:41.098Z,12.60
2018-06-20T10:31:09.581Z,14.40
2018-06-20T10:33:37.970Z,11.90
2018-06-20T10:36:06.543Z,12.07
2018-06-20T10:38:35.124Z,15.13
2018-06-20T10:41:03.708Z,15.37
2018-06-20T10:43:32.293Z,13.83
2018-06-20T10:46:06.169Z,14.80
2018-06-20T10:48:34.782Z,12.90
2018-06-20T10:51:03.261Z,12.07
2018-06-20T10:53:31.744Z,11.97
2018-06-20T10:56:00.336Z,12.13
2018-06-20T10:58:34.333Z,12.90
2018-06-20T11:01:08.068Z,12.07
2018-06-20T11:03:42.050Z,11.33
2018-06-20T11:06:15.642Z,11.03
2018-06-20T11:08:49.555Z,13.60
2018-06-20T11:11:23.155Z,14.50
2018-06-20T11:13:51.653Z,12.73
2018-06-20T11:16:20.323Z,20.30
2018-06-20T11:18:52.489Z,13.03
2018-06-20T11:21:20.997Z,10.53
2018-06-20T11:23:49.655Z,11.23
2018-06-20T11:26:18.063Z,10.17
2018-06-20T11:28:46.716Z,10.30
2018-06-20T11:31:15.249Z,10.70
2018-06-20T11:33:43.782Z,9.83
2018-06-20T11:36:12.978Z,12.10
2018-06-20T11:38:41.352Z,9.50
2018-06-20T11:41:09.841Z,13.70
2018-06-20T11:43:38.526Z,13.60
2018-06-20T11:46:12.184Z,9.20
2018-06-20T11:48:40.709Z,11.93
2018-06-20T11:51:09.190Z,10.77
2018-06-20T11:53:37.775Z,27.10
2018-06-20T11:56:06.245Z,31.40
2018-06-20T11:58:40.264Z,15.93
2018-06-20T12:01:14.283Z,14.27
2018-06-20T12:03:48.115Z,14.27
2018-06-20T12:07:20.967Z,12.17
2018-06-20T12:09:54.780Z,10.50
2018-06-20T12:12:28.680Z,11.80
2018-06-20T12:15:02.384Z,12.40
2018-06-20T12:17:36.095Z,10.27
2018-06-20T12:20:10.000Z,12.97
2018-06-20T12:22:43.751Z,12.13
2018-06-20T12:25:17.914Z,9.40
2018-06-20T12:27:51.625Z,10.13
2018-06-20T12:30:25.451Z,10.37
2018-06-20T12:32:58.991Z,9.50
2018-06-20T12:35:32.828Z,9.47
2018-06-20T12:38:06.641Z,11.97
2018-06-20T12:40:40.440Z,12.67
2018-06-20T12:43:14.245Z,9.80
2018-06-20T12:45:43.031Z,11.77
2018-06-20T12:48:18.170Z,11.47
2018-06-20T12:50:46.749Z,12.93
2018-06-20T12:53:15.127Z,11.97
2018-06-20T12:55:43.714Z,18.57
2018-06-20T12:58:12.195Z,14.63
2018-06-20T13:00:40.777Z,14.10
2018-06-20T13:03:09.260Z,11.80
2018-06-20T13:05:37.838Z,12.73
2018-06-20T13:08:06.425Z,12.60
2018-06-20T13:10:34.801Z,12.90
2018-06-20T13:13:03.383Z,13.00
2018-06-20T13:15:31.909Z,19.93
2018-06-20T13:18:00.445Z,15.97
2018-06-20T13:20:29.139Z,13.00
2018-06-20T13:22:57.635Z,17.93
2018-06-20T13:25:26.198Z,12.90
2018-06-20T13:27:54.576Z,15.57
2018-06-20T13:30:23.156Z,12.10
2018-06-20T13:32:57.064Z,11.67
2018-06-20T13:35:30.891Z,13.67
2018-06-20T13:38:04.674Z,12.87
2018-06-20T13:40:38.790Z,19.33
2018-06-20T13:43:12.595Z,15.33
2018-06-20T13:45:46.397Z,14.30
2018-06-20T13:48:20.411Z,11.70
2018-06-20T13:50:48.785Z,15.83
2018-06-20T13:53:17.181Z,14.77
2018-06-20T13:55:45.544Z,14.53
2018-06-20T13:58:15.047Z,13.87
2018-06-20T14:00:43.632Z,13.70
2018-06-20T14:03:12.001Z,15.30
2018-06-20T14:05:40.594Z,14.77
2018-06-20T14:08:09.177Z,19.80
2018-06-20T14:10:37.662Z,13.17
2018-06-20T14:13:06.155Z,13.90
2018-06-20T14:15:34.718Z,15.97
2018-06-20T14:18:03.300Z,16.33
2018-06-20T14:20:37.108Z,13.00
2018-06-20T14:23:05.586Z,16.80
2018-06-20T14:25:33.994Z,13.73
2018-06-20T14:28:02.548Z,19.30
2018-06-20T14:30:36.557Z,13.77
2018-06-20T14:33:10.260Z,13.20
2018-06-20T14:35:43.865Z,12.10
2018-06-20T14:38:17.666Z,17.00
2018-06-20T14:40:51.530Z,11.47
2018-06-20T14:43:25.391Z,13.03
2018-06-20T14:45:59.185Z,17.33
2018-06-20T14:48:36.472Z,12.70
2018-06-20T14:51:05.161Z,14.03
2018-06-20T14:53:34.145Z,17.77
2018-06-20T14:56:02.735Z,16.63
2018-06-20T14:58:31.520Z,15.13
2018-06-20T15:01:00.120Z,14.73
2018-06-20T15:03:28.589Z,64.57
2018-06-20T15:05:57.272Z,15.20
2018-06-20T15:08:25.760Z,15.70
2018-06-20T15:10:54.332Z,17.47
2018-06-20T15:13:22.920Z,16.73
2018-06-20T15:15:51.397Z,14.27
2018-06-20T15:18:19.877Z,15.13
2018-06-20T15:20:48.489Z,15.57
2018-06-20T15:23:16.938Z,14.93
2018-06-20T15:25:50.746Z,12.43
2018-06-20T15:29:24.677Z,13.17
2018-06-20T15:31:58.220Z,11.90
2018-06-20T15:34:31.998Z,13.27
2018-06-20T15:37:05.758Z,12.10
2018-06-20T15:39:34.263Z,11.03
2018-06-20T15:42:02.625Z,11.67
2018-06-20T15:44:31.212Z,11.87
2018-06-20T15:47:01.746Z,10.27
2018-06-20T15:49:30.322Z,12.23
2018-06-20T15:51:59.232Z,10.43
2018-06-20T15:54:27.797Z,13.17
2018-06-20T15:56:56.278Z,11.90
2018-06-20T15:59:24.858Z,8.53
2018-06-20T16:01:53.444Z,10.77
2018-06-20T16:04:22.338Z,10.17
2018-06-20T16:06:50.790Z,9.40
2018-06-20T16:09:24.522Z,10.17
2018-06-20T16:11:53.100Z,9.67
2018-06-20T16:14:21.685Z,13.83
2018-06-20T16:16:50.278Z,13.47
2018-06-20T16:19:24.276Z,12.37
2018-06-20T16:21:57.980Z,12.70
2018-06-20T16:24:31.785Z,14.70
2018-06-20T16:27:05.589Z,13.00
2018-06-20T16:29:39.599Z,12.03
2018-06-20T16:32:07.999Z,13.67
2018-06-20T16:34:36.457Z,13.20
2018-06-20T16:37:05.038Z,10.63
2018-06-20T16:39:33.519Z,13.70
2018-06-20T16:42:02.111Z,12.97
2018-06-20T16:44:31.097Z,15.07
2018-06-20T16:46:59.677Z,12.33
2018-06-20T16:49:28.364Z,13.30
2018-06-20T16:51:56.946Z,10.60
2018-06-20T16:54:25.529Z,10.60
2018-06-20T16:56:53.922Z,11.67
2018-06-20T16:59:22.382Z,12.60
2018-06-20T17:01:56.296Z,11.90
2018-06-20T17:04:24.880Z,18.00
2018-06-20T17:06:53.501Z,12.10
2018-06-20T17:09:22.047Z,11.77
2018-06-20T17:11:55.858Z,11.97
2018-06-20T17:14:29.771Z,15.67
2018-06-20T17:17:03.461Z,12.20
2018-06-20T17:19:37.266Z,13.27
2018-06-20T17:22:11.077Z,11.77
2018-06-20T17:24:44.890Z,17.13
2018-06-20T17:27:13.396Z,13.33
2018-06-20T17:29:42.060Z,13.17
2018-06-20T17:32:10.626Z,12.80
2018-06-20T17:34:39.108Z,11.90
2018-06-20T17:37:07.601Z,14.67
2018-06-20T17:39:36.172Z,18.97
2018-06-20T17:42:04.756Z,14.73
2018-06-20T17:44:33.337Z,13.00
2018-06-20T17:47:01.825Z,12.23
2018-06-20T17:49:30.194Z,12.97
2018-06-20T17:51:58.779Z,17.07
2018-06-20T17:54:27.463Z,15.57
2018-06-20T17:56:56.051Z,10.93
2018-06-20T17:59:24.630Z,11.87
2018-06-20T18:01:53.215Z,12.03
2018-06-20T18:04:27.020Z,14.67
2018-06-20T18:07:00.925Z,12.17
2018-06-20T18:09:34.938Z,13.87
2018-06-20T18:12:08.844Z,11.97
2018-06-20T18:14:42.752Z,13.23
2018-06-20T18:17:11.267Z,11.43
2018-06-20T18:19:39.818Z,12.77
2018-06-20T18:22:08.314Z,14.73
2018-06-20T18:24:37.390Z,12.57
2018-06-20T18:27:06.083Z,13.40
2018-06-20T18:29:34.558Z,12.87
2018-06-20T18:32:03.262Z,15.93
2018-06-20T18:34:31.927Z,14.10
2018-06-20T18:37:00.408Z,12.60
2018-06-20T18:40:05.854Z,12.57
2018-06-20T18:42:34.775Z,15.73
2018-06-20T18:45:03.223Z,16.90
2018-06-20T18:50:11.369Z,12.63
2018-06-20T18:52:40.034Z,13.50
2018-06-20T18:55:08.675Z,21.00
2018-06-20T18:57:42.627Z,17.93
2018-06-20T19:00:16.451Z,15.93
2018-06-20T19:02:50.181Z,17.10
2018-06-20T19:05:23.948Z,19.07
2018-06-20T19:07:57.744Z,21.03
2018-06-20T19:10:26.329Z,21.93
2018-06-20T19:12:54.823Z,24.00
2018-06-20T19:15:23.393Z,21.53
2018-06-20T19:17:52.285Z,24.90
2018-06-20T19:20:20.765Z,20.30
2018-06-20T19:22:49.346Z,20.03
2018-06-20T19:25:17.829Z,19.43
2018-06-20T19:27:46.408Z,18.87
2018-06-20T19:30:14.993Z,19.57
2018-06-20T19:32:43.650Z,20.67
2018-06-20T19:35:12.162Z,19.87
2018-06-20T19:37:40.641Z,18.43
2018-06-20T19:40:09.222Z,19.10
2018-06-20T19:42:37.812Z,20.57
2018-06-20T19:45:06.435Z,19.57
2018-06-20T19:47:34.973Z,26.23
2018-06-20T19:50:03.349Z,19.37
2018-06-20T19:52:31.754Z,23.17
2018-06-20T19:55:00.311Z,22.00
2018-06-20T19:57:28.693Z,23.23
2018-06-20T19:59:57.265Z,21.90
2018-06-20T20:02:25.777Z,20.03
2018-06-20T20:04:54.334Z,23.15
2018-06-20T20:07:23.224Z,21.07
2018-06-20T20:09:51.909Z,26.83
2018-06-20T20:12:20.389Z,20.50
2018-06-20T20:14:48.924Z,20.00
2018-06-20T20:17:18.173Z,21.40
2018-06-20T20:19:47.958Z,21.07
2018-06-20T20:22:16.588Z,20.80
2018-06-20T20:24:45.148Z,20.23
2018-06-20T20:27:14.074Z,26.17
2018-06-20T20:29:42.635Z,20.73
2018-06-20T20:32:11.317Z,20.37
2018-06-20T20:34:39.637Z,18.73
2018-06-20T20:37:08.483Z,27.10
2018-06-20T20:39:36.981Z,21.40
2018-06-20T20:42:05.449Z,17.93
2018-06-20T20:44:34.020Z,19.97
2018-06-20T20:47:02.703Z,17.53
2018-06-20T20:49:31.315Z,17.93
2018-06-20T20:52:00.874Z,20.53
2018-06-20T20:54:29.372Z,20.40
2018-06-20T20:56:58.785Z,21.47
2018-06-20T20:59:27.994Z,19.63
2018-06-20T21:01:57.716Z,19.53
2018-06-20T21:04:26.187Z,21.07
2018-06-20T21:06:54.642Z,21.23
2018-06-20T21:09:22.975Z,22.53
2018-06-20T21:11:51.504Z,20.57
2018-06-20T21:14:20.090Z,23.73
2018-06-20T21:16:48.668Z,28.17
2018-06-20T21:19:17.030Z,32.03
2018-06-20T21:21:45.437Z,29.67
2018-06-20T21:24:13.905Z,33.27
2018-06-20T21:26:42.390Z,31.00
2018-06-20T21:29:10.996Z,29.33
2018-06-20T21:31:39.453Z,29.10
2018-06-20T21:34:08.032Z,33.00
2018-06-20T21:36:36.616Z,32.57
2018-06-20T21:39:07.036Z,30.03
2018-06-20T21:41:35.626Z,30.07
2018-06-20T21:44:04.019Z,30.97
2018-06-20T21:46:32.583Z,34.07
2018-06-20T21:49:01.282Z,31.97
2018-06-20T21:51:29.750Z,32.63
2018-06-20T21:53:58.337Z,32.37
2018-06-20T21:56:26.813Z,30.80
2018-06-20T21:58:55.426Z,37.30
2018-06-20T22:01:23.881Z,34.80
2018-06-20T22:03:52.664Z,32.93
2018-06-20T22:06:21.149Z,36.60
2018-06-20T22:08:49.427Z,34.37
2018-06-20T22:11:18.008Z,34.27
2018-06-20T22:13:46.598Z,34.70
2018-06-20T22:16:14.962Z,34.50
2018-06-20T22:18:43.548Z,33.90
2018-06-20T22:21:12.030Z,36.17
2018-06-20T22:23:40.510Z,32.47
2018-06-20T22:26:09.195Z,32.00
2018-06-20T22:28:37.787Z,30.60
2018-06-20T22:31:06.671Z,32.33
2018-06-20T22:33:35.352Z,30.20
2018-06-20T22:36:03.835Z,29.67
2018-06-20T22:38:32.416Z,30.20
2018-06-20T22:41:00.896Z,29.07
2018-06-20T22:43:29.482Z,30.50
2018-06-20T22:45:57.962Z,27.60
2018-06-20T22:48:26.545Z,28.90
2018-06-20T22:50:55.025Z,29.70
2018-06-20T22:53:23.609Z,27.67
2018-06-20T22:55:52.015Z,25.43
2018-06-20T22:58:20.568Z,26.03
2018-06-20T23:00:49.047Z,25.67
2018-06-20T23:03:17.434Z,26.27
2018-06-20T23:05:46.111Z,25.97
2018-06-20T23:08:14.510Z,24.40
2018-06-20T23:10:42.944Z,27.77
2018-06-20T23:13:11.553Z,25.27
2018-06-20T23:15:40.034Z,25.03
2018-06-20T23:18:08.719Z,24.77
2018-06-20T23:20:37.302Z,25.33
2018-06-20T23:23:05.618Z,24.93
2018-06-20T23:25:34.169Z,23.83
2018-06-20T23:28:02.744Z,23.20
2018-06-20T23:30:31.129Z,23.10
2018-06-20T23:32:59.500Z,23.47
2018-06-20T23:35:27.985Z,21.67
2018-06-20T23:37:56.456Z,23.60
2018-06-20T23:40:25.044Z,23.50
2018-06-20T23:42:53.627Z,23.63
2018-06-20T23:45:22.071Z,22.90
2018-06-20T23:47:50.589Z,22.40
2018-06-20T23:50:19.170Z,21.97
2018-06-20T23:52:47.599Z,22.37
2018-06-20T23:55:15.922Z,22.00
2018-06-20T23:57:44.510Z,21.10
